Aeroporto :
LOGIN :

Iscrizione | Disclaimer

   EN    FR    IT 

 










Sommario :    VFR   VFR Marginale   IFR   IFR Intensivo   IFR Molto Intensivo
Visibilità : 
Base nubi : 
>= 8 km
>= 3000ft
5 / 8 km
1000 / 3000 ft
1500m / 5 km
500 / 1000 ft
800 / 1500m
200 / 500 ft
< 800m
< 200 ft
Simboli :   Temporali  Nebbia  Neve Forte  Precipitazioni Forti  Vento > 20 kt
SIGMETs :   Varie  Temporali  Ghiacco  Turbolenza  Onda orograficha  Ceneri Vulcaniche







- Altitudine del aeroporto : 302 ft
- Carte del aeroporto


LFPM - Melun Villaroche

ULTIMO METAR :
  • 210230Z AUTO 00000KT 3600 BR NSC 02/02 Q1026

METARs OBSOLETI :
  • 210200Z AUTO 15001KT 2600 BR NSC 03/03 Q1026
  • 210130Z AUTO 00000KT 3300 BR NSC 03/03 Q1026
  • 210100Z AUTO 34003KT 3200 BR NSC 03/03 Q1026
  • 210030Z AUTO 14003KT 4000 BR NSC 04/03 Q1026
  • 210000Z AUTO 11004KT 4200 BR NSC 04/04 Q1025
  • 202330Z AUTO 07001KT 4600 BR NSC 04/04 Q1025

Previsioni scadute.
ATIS : +33 1 64 14 28 44
Nessun NOTAM noto per questo aeroporto.



MetMap, La meteo Aeronautica in un colpo d'occhio ! - Copyright ORBIFLY Dicembre 2007 - Disclaimer

ORBIFLY MET'MAP TEAM :

Programmazione e sviluppo : Alexandra Zaïnal
Concezione e sviluppo : Baudouin d'Aumeries
Co-Programmazione e sviluppo : Marc-Olivier Méhu
Supporto tecnico e logistico : Manuel Goepfert
Aiuto per la traduzione : Arnaldo La Scala

Contatto : metmap@orbifly.com




FONTI E CREDITI :

   NOAA